sensor_id;sensor_type;location;lat;lon;timestamp;pressure;altitude;pressure_sealevel;temperature;humidity
28000;BME280;15328;50.860;10.562;2023-03-09T00:03:14;93916.00;;;2.80;73.75
28000;BME280;15328;50.860;10.562;2023-03-09T00:08:17;93913.41;;;2.80;74.03
28000;BME280;15328;50.860;10.562;2023-03-09T00:13:19;93923.66;;;2.82;73.71
28000;BME280;15328;50.860;10.562;2023-03-09T00:18:20;93921.72;;;2.77;73.42
28000;BME280;15328;50.860;10.562;2023-03-09T00:23:21;93904.47;;;2.69;73.87
28000;BME280;15328;50.860;10.562;2023-03-09T00:28:22;93894.66;;;2.65;73.92
28000;BME280;15328;50.860;10.562;2023-03-09T00:33:22;93904.03;;;2.61;73.83
28000;BME280;15328;50.860;10.562;2023-03-09T00:38:22;93902.69;;;2.58;74.40
28000;BME280;15328;50.860;10.562;2023-03-09T00:43:23;93899.81;;;2.60;73.91
28000;BME280;15328;50.860;10.562;2023-03-09T00:48:24;93892.97;;;2.59;74.30
28000;BME280;15328;50.860;10.562;2023-03-09T00:53:25;93895.50;;;2.54;74.18
28000;BME280;15328;50.860;10.562;2023-03-09T00:58:25;93902.81;;;2.52;74.23
28000;BME280;15328;50.860;10.562;2023-03-09T01:03:26;93911.69;;;2.51;74.05
28000;BME280;15328;50.860;10.562;2023-03-09T01:08:26;93913.31;;;2.52;74.34
28000;BME280;15328;50.860;10.562;2023-03-09T01:13:27;93904.41;;;2.53;74.45
28000;BME280;15328;50.860;10.562;2023-03-09T01:18:27;93903.13;;;2.43;74.38
28000;BME280;15328;50.860;10.562;2023-03-09T01:23:27;93881.34;;;2.43;73.82
28000;BME280;15328;50.860;10.562;2023-03-09T01:28:28;93876.31;;;2.41;74.54
28000;BME280;15328;50.860;10.562;2023-03-09T01:33:28;93871.88;;;2.42;74.42
28000;BME280;15328;50.860;10.562;2023-03-09T01:38:29;93871.16;;;2.46;73.50
28000;BME280;15328;50.860;10.562;2023-03-09T01:43:33;93852.03;;;2.34;74.08
28000;BME280;15328;50.860;10.562;2023-03-09T01:48:40;93832.03;;;2.45;73.87
28000;BME280;15328;50.860;10.562;2023-03-09T01:53:42;93829.78;;;2.48;73.16
28000;BME280;15328;50.860;10.562;2023-03-09T01:58:43;93822.94;;;2.47;73.95
28000;BME280;15328;50.860;10.562;2023-03-09T02:03:49;93832.84;;;2.45;74.27
28000;BME280;15328;50.860;10.562;2023-03-09T02:09:23;93831.25;;;2.44;74.23
28000;BME280;15328;50.860;10.562;2023-03-09T02:14:21;93834.66;;;2.45;73.66
28000;BME280;15328;50.860;10.562;2023-03-09T02:19:30;93837.19;;;2.40;73.70
28000;BME280;15328;50.860;10.562;2023-03-09T02:24:43;93843.69;;;2.37;73.30
28000;BME280;15328;50.860;10.562;2023-03-09T02:29:46;93840.38;;;2.42;73.39
28000;BME280;15328;50.860;10.562;2023-03-09T02:34:46;93844.38;;;2.44;73.55
28000;BME280;15328;50.860;10.562;2023-03-09T02:39:49;93838.09;;;2.45;73.84
28000;BME280;15328;50.860;10.562;2023-03-09T02:44:49;93835.69;;;2.44;73.81
28000;BME280;15328;50.860;10.562;2023-03-09T02:49:50;93834.00;;;2.50;73.27
28000;BME280;15328;50.860;10.562;2023-03-09T02:54:51;93832.41;;;2.48;74.35
28000;BME280;15328;50.860;10.562;2023-03-09T02:59:51;93837.19;;;2.52;73.96
28000;BME280;15328;50.860;10.562;2023-03-09T03:04:51;93829.88;;;2.54;73.32
28000;BME280;15328;50.860;10.562;2023-03-09T03:09:52;93836.63;;;2.50;73.58
28000;BME280;15328;50.860;10.562;2023-03-09T03:14:52;93841.75;;;2.44;73.89
28000;BME280;15328;50.860;10.562;2023-03-09T03:19:53;93832.50;;;2.42;74.34
28000;BME280;15328;50.860;10.562;2023-03-09T03:24:53;93843.69;;;2.37;74.09
28000;BME280;15328;50.860;10.562;2023-03-09T03:29:54;93860.22;;;2.38;74.50
28000;BME280;15328;50.860;10.562;2023-03-09T03:34:54;93883.38;;;2.41;73.64
28000;BME280;15328;50.860;10.562;2023-03-09T03:39:55;93898.81;;;2.49;73.81
28000;BME280;15328;50.860;10.562;2023-03-09T03:44:55;93909.88;;;2.51;74.57
28000;BME280;15328;50.860;10.562;2023-03-09T03:49:55;93932.81;;;2.56;73.90
28000;BME280;15328;50.860;10.562;2023-03-09T03:54:56;93939.88;;;2.55;73.80
28000;BME280;15328;50.860;10.562;2023-03-09T03:59:56;93953.56;;;2.57;74.17
28000;BME280;15328;50.860;10.562;2023-03-09T04:04:56;93925.03;;;2.61;74.08
28000;BME280;15328;50.860;10.562;2023-03-09T04:09:57;93881.91;;;2.57;73.33
28000;BME280;15328;50.860;10.562;2023-03-09T04:14:57;93951.06;;;2.51;74.25
28000;BME280;15328;50.860;10.562;2023-03-09T04:19:57;93967.63;;;2.51;73.66
28000;BME280;15328;50.860;10.562;2023-03-09T04:24:58;93956.09;;;2.52;73.87
28000;BME280;15328;50.860;10.562;2023-03-09T04:29:58;93976.28;;;2.52;73.97
28000;BME280;15328;50.860;10.562;2023-03-09T04:34:58;93966.13;;;2.55;73.77
28000;BME280;15328;50.860;10.562;2023-03-09T04:39:59;93976.28;;;2.52;73.63
28000;BME280;15328;50.860;10.562;2023-03-09T04:44:59;93985.31;;;2.56;73.47
28000;BME280;15328;50.860;10.562;2023-03-09T04:49:59;93997.63;;;2.55;73.98
28000;BME280;15328;50.860;10.562;2023-03-09T04:55:00;94006.63;;;2.59;73.69
28000;BME280;15328;50.860;10.562;2023-03-09T05:00:00;94012.69;;;2.60;73.81
28000;BME280;15328;50.860;10.562;2023-03-09T05:05:01;94012.91;;;2.58;74.00
28000;BME280;15328;50.860;10.562;2023-03-09T05:10:01;94039.28;;;2.63;74.32
28000;BME280;15328;50.860;10.562;2023-03-09T05:15:01;94043.50;;;2.64;74.60
28000;BME280;15328;50.860;10.562;2023-03-09T05:20:03;94063.72;;;2.64;74.63
28000;BME280;15328;50.860;10.562;2023-03-09T05:25:09;94076.16;;;2.68;74.29
28000;BME280;15328;50.860;10.562;2023-03-09T05:30:10;94096.34;;;2.68;74.43
28000;BME280;15328;50.860;10.562;2023-03-09T05:35:11;94095.78;;;2.66;74.62
28000;BME280;15328;50.860;10.562;2023-03-09T05:40:13;94116.09;;;2.70;74.24
28000;BME280;15328;50.860;10.562;2023-03-09T05:45:13;94126.25;;;2.67;73.81
28000;BME280;15328;50.860;10.562;2023-03-09T05:50:14;94142.13;;;2.72;74.52
28000;BME280;15328;50.860;10.562;2023-03-09T05:55:15;94144.97;;;2.70;74.53
28000;BME280;15328;50.860;10.562;2023-03-09T06:00:16;94164.72;;;2.73;74.53
28000;BME280;15328;50.860;10.562;2023-03-09T06:05:16;94171.06;;;2.84;74.52
28000;BME280;15328;50.860;10.562;2023-03-09T06:10:17;94191.78;;;3.03;75.07
28000;BME280;15328;50.860;10.562;2023-03-09T06:15:17;94200.25;;;3.17;75.10
28000;BME280;15328;50.860;10.562;2023-03-09T06:20:17;94193.91;;;3.48;75.73
28000;BME280;15328;50.860;10.562;2023-03-09T06:25:18;94219.06;;;3.67;76.10
28000;BME280;15328;50.860;10.562;2023-03-09T06:30:18;94227.72;;;4.03;77.21
28000;BME280;15328;50.860;10.562;2023-03-09T06:35:19;94224.38;;;4.31;76.68
28000;BME280;15328;50.860;10.562;2023-03-09T06:40:19;94236.22;;;4.57;77.83
28000;BME280;15328;50.860;10.562;2023-03-09T06:45:19;94238.09;;;4.85;77.40
28000;BME280;15328;50.860;10.562;2023-03-09T06:50:24;94239.09;;;4.95;76.56
28000;BME280;15328;50.860;10.562;2023-03-09T06:55:24;94252.69;;;5.04;77.74
28000;BME280;15328;50.860;10.562;2023-03-09T07:00:25;94257.41;;;5.19;76.25
28000;BME280;15328;50.860;10.562;2023-03-09T07:05:25;94269.13;;;5.40;75.90
28000;BME280;15328;50.860;10.562;2023-03-09T07:10:26;94279.75;;;5.45;76.71
28000;BME280;15328;50.860;10.562;2023-03-09T07:15:26;94280.72;;;5.55;76.84
28000;BME280;15328;50.860;10.562;2023-03-09T07:20:26;94282.69;;;5.77;76.91
28000;BME280;15328;50.860;10.562;2023-03-09T07:25:27;94320.81;;;5.86;76.95
28000;BME280;15328;50.860;10.562;2023-03-09T07:30:28;94316.50;;;5.97;76.21
28000;BME280;15328;50.860;10.562;2023-03-09T07:35:28;94332.22;;;6.03;75.75
28000;BME280;15328;50.860;10.562;2023-03-09T07:40:29;94344.19;;;6.11;75.72
28000;BME280;15328;50.860;10.562;2023-03-09T07:45:30;94351.31;;;6.10;77.54
28000;BME280;15328;50.860;10.562;2023-03-09T07:50:30;94355.53;;;6.28;77.17
28000;BME280;15328;50.860;10.562;2023-03-09T07:55:31;94369.22;;;6.42;76.51
28000;BME280;15328;50.860;10.562;2023-03-09T08:00:34;94372.81;;;6.53;76.05
28000;BME280;15328;50.860;10.562;2023-03-09T08:05:34;94376.34;;;6.58;76.05
28000;BME280;15328;50.860;10.562;2023-03-09T08:10:34;94376.41;;;6.63;75.27
28000;BME280;15328;50.860;10.562;2023-03-09T08:15:35;94398.59;;;6.62;74.92
28000;BME280;15328;50.860;10.562;2023-03-09T08:20:36;94392.66;;;6.72;76.06
28000;BME280;15328;50.860;10.562;2023-03-09T08:25:37;94402.06;;;6.85;74.79
28000;BME280;15328;50.860;10.562;2023-03-09T08:30:38;94418.25;;;6.88;74.27
28000;BME280;15328;50.860;10.562;2023-03-09T08:35:39;94416.97;;;6.91;74.44
28000;BME280;15328;50.860;10.562;2023-03-09T08:40:39;94427.06;;;6.94;73.81
28000;BME280;15328;50.860;10.562;2023-03-09T08:45:41;94433.22;;;6.99;73.89
28000;BME280;15328;50.860;10.562;2023-03-09T08:50:41;94452.50;;;7.00;74.04
28000;BME280;15328;50.860;10.562;2023-03-09T08:55:41;94457.19;;;6.93;74.00
28000;BME280;15328;50.860;10.562;2023-03-09T09:00:42;94457.25;;;6.98;74.75
28000;BME280;15328;50.860;10.562;2023-03-09T09:05:42;94463.06;;;7.17;74.89
28000;BME280;15328;50.860;10.562;2023-03-09T09:10:43;94471.09;;;7.43;74.46
28000;BME280;15328;50.860;10.562;2023-03-09T09:15:45;94471.22;;;7.54;74.25
28000;BME280;15328;50.860;10.562;2023-03-09T09:20:45;94471.47;;;7.74;73.79
28000;BME280;15328;50.860;10.562;2023-03-09T09:25:53;94465.47;;;7.84;73.10
28000;BME280;15328;50.860;10.562;2023-03-09T09:30:59;94478.44;;;8.07;72.97
28000;BME280;15328;50.860;10.562;2023-03-09T09:36:02;94478.25;;;8.14;72.46
28000;BME280;15328;50.860;10.562;2023-03-09T09:41:09;94487.22;;;8.34;72.35
28000;BME280;15328;50.860;10.562;2023-03-09T09:46:15;94492.22;;;8.58;72.01
28000;BME280;15328;50.860;10.562;2023-03-09T09:56:47;94502.38;;;8.71;70.79
28000;BME280;15328;50.860;10.562;2023-03-09T10:02:05;94513.09;;;9.18;70.62
28000;BME280;15328;50.860;10.562;2023-03-09T10:07:17;94517.63;;;9.23;69.42
28000;BME280;15328;50.860;10.562;2023-03-09T10:12:17;94508.13;;;9.27;69.56
28000;BME280;15328;50.860;10.562;2023-03-09T10:22:25;94507.25;;;9.16;69.37
28000;BME280;15328;50.860;10.562;2023-03-09T10:27:31;94526.41;;;9.23;69.74
28000;BME280;15328;50.860;10.562;2023-03-09T10:32:54;94524.28;;;9.25;69.53
28000;BME280;15328;50.860;10.562;2023-03-09T10:37:55;94533.78;;;9.16;69.54
28000;BME280;15328;50.860;10.562;2023-03-09T10:42:59;94540.94;;;9.16;69.81
28000;BME280;15328;50.860;10.562;2023-03-09T10:48:03;94544.13;;;9.18;69.73
28000;BME280;15328;50.860;10.562;2023-03-09T10:58:26;94554.16;;;9.11;69.85
28000;BME280;15328;50.860;10.562;2023-03-09T11:03:36;94563.78;;;9.22;69.86
28000;BME280;15328;50.860;10.562;2023-03-09T11:08:37;94564.34;;;9.24;70.15
28000;BME280;15328;50.860;10.562;2023-03-09T11:13:42;94583.75;;;9.29;70.22
28000;BME280;15328;50.860;10.562;2023-03-09T11:18:44;94578.78;;;9.38;70.03
28000;BME280;15328;50.860;10.562;2023-03-09T11:23:56;94592.03;;;9.33;69.79
28000;BME280;15328;50.860;10.562;2023-03-09T11:29:34;94603.91;;;9.30;70.18
28000;BME280;15328;50.860;10.562;2023-03-09T11:34:39;94610.03;;;9.31;70.45
28000;BME280;15328;50.860;10.562;2023-03-09T11:39:53;94619.03;;;9.30;70.31
28000;BME280;15328;50.860;10.562;2023-03-09T11:44:54;94618.09;;;9.09;71.02
28000;BME280;15328;50.860;10.562;2023-03-09T11:49:57;94606.22;;;9.17;71.17
28000;BME280;15328;50.860;10.562;2023-03-09T11:54:59;94619.47;;;9.17;71.50
28000;BME280;15328;50.860;10.562;2023-03-09T12:00:09;94622.66;;;9.19;70.96
28000;BME280;15328;50.860;10.562;2023-03-09T12:05:12;94605.63;;;9.42;72.48
28000;BME280;15328;50.860;10.562;2023-03-09T12:10:32;94602.50;;;9.97;71.26
28000;BME280;15328;50.860;10.562;2023-03-09T12:15:47;94626.44;;;10.02;69.78
28000;BME280;15328;50.860;10.562;2023-03-09T12:20:52;94626.69;;;9.96;69.78
28000;BME280;15328;50.860;10.562;2023-03-09T12:25:57;94631.69;;;9.87;69.36
28000;BME280;15328;50.860;10.562;2023-03-09T12:30:58;94639.84;;;9.80;69.43
28000;BME280;15328;50.860;10.562;2023-03-09T12:35:58;94635.31;;;9.76;69.86
28000;BME280;15328;50.860;10.562;2023-03-09T12:40:59;94629.47;;;9.74;70.12
28000;BME280;15328;50.860;10.562;2023-03-09T12:46:47;94629.75;;;9.77;70.04
28000;BME280;15328;50.860;10.562;2023-03-09T12:51:55;94616.06;;;9.58;70.70
28000;BME280;15328;50.860;10.562;2023-03-09T12:57:09;94621.25;;;9.75;71.03
28000;BME280;15328;50.860;10.562;2023-03-09T13:02:32;94623.16;;;9.85;70.60
28000;BME280;15328;50.860;10.562;2023-03-09T13:07:34;94630.94;;;9.97;70.58
28000;BME280;15328;50.860;10.562;2023-03-09T13:12:35;94658.72;;;9.84;69.83
28000;BME280;15328;50.860;10.562;2023-03-09T13:17:37;94668.50;;;9.78;70.37
28000;BME280;15328;50.860;10.562;2023-03-09T13:22:38;94655.00;;;9.85;70.08
28000;BME280;15328;50.860;10.562;2023-03-09T13:27:39;94655.53;;;9.82;70.92
28000;BME280;15328;50.860;10.562;2023-03-09T13:32:58;94667.06;;;9.98;70.99
28000;BME280;15328;50.860;10.562;2023-03-09T13:38:00;94671.09;;;10.05;70.81
28000;BME280;15328;50.860;10.562;2023-03-09T13:43:14;94670.25;;;10.00;70.25
28000;BME280;15328;50.860;10.562;2023-03-09T13:48:16;94668.44;;;10.05;70.29
28000;BME280;15328;50.860;10.562;2023-03-09T13:58:19;94677.94;;;9.96;70.26
28000;BME280;15328;50.860;10.562;2023-03-09T14:03:23;94674.22;;;9.97;69.97
28000;BME280;15328;50.860;10.562;2023-03-09T14:08:25;94686.19;;;10.00;69.96
28000;BME280;15328;50.860;10.562;2023-03-09T14:13:26;94685.53;;;10.19;69.24
28000;BME280;15328;50.860;10.562;2023-03-09T14:18:37;94680.56;;;10.28;69.39
28000;BME280;15328;50.860;10.562;2023-03-09T14:23:43;94669.63;;;10.25;69.19
28000;BME280;15328;50.860;10.562;2023-03-09T14:49:33;94673.44;;;9.97;69.15
28000;BME280;15328;50.860;10.562;2023-03-09T14:54:33;94668.16;;;10.02;68.72
28000;BME280;15328;50.860;10.562;2023-03-09T14:59:34;94669.47;;;9.99;68.87
28000;BME280;15328;50.860;10.562;2023-03-09T15:04:35;94677.72;;;10.03;69.39
28000;BME280;15328;50.860;10.562;2023-03-09T15:09:36;94668.16;;;10.07;68.92
28000;BME280;15328;50.860;10.562;2023-03-09T15:14:39;94671.31;;;9.99;68.99
28000;BME280;15328;50.860;10.562;2023-03-09T15:19:40;94666.13;;;9.77;70.14
28000;BME280;15328;50.860;10.562;2023-03-09T15:24:41;94663.22;;;9.78;69.77
28000;BME280;15328;50.860;10.562;2023-03-09T15:29:42;94665.31;;;9.76;70.49
28000;BME280;15328;50.860;10.562;2023-03-09T15:34:44;94662.41;;;9.78;70.14
28000;BME280;15328;50.860;10.562;2023-03-09T15:39:44;94648.84;;;9.74;70.15
28000;BME280;15328;50.860;10.562;2023-03-09T15:44:45;94641.91;;;9.68;71.20
28000;BME280;15328;50.860;10.562;2023-03-09T15:49:45;94636.59;;;9.68;71.43
28000;BME280;15328;50.860;10.562;2023-03-09T15:54:46;94617.53;;;9.76;70.86
28000;BME280;15328;50.860;10.562;2023-03-09T15:59:47;94626.00;;;9.73;70.29
28000;BME280;15328;50.860;10.562;2023-03-09T16:04:48;94622.78;;;9.66;70.83
28000;BME280;15328;50.860;10.562;2023-03-09T16:09:49;94609.09;;;9.47;70.81
28000;BME280;15328;50.860;10.562;2023-03-09T16:14:49;94614.06;;;9.34;71.76
28000;BME280;15328;50.860;10.562;2023-03-09T16:19:50;94628.69;;;9.41;71.71
28000;BME280;15328;50.860;10.562;2023-03-09T16:24:51;94629.75;;;9.40;71.29
28000;BME280;15328;50.860;10.562;2023-03-09T16:29:51;94628.38;;;9.33;72.19
28000;BME280;15328;50.860;10.562;2023-03-09T16:34:52;94627.91;;;9.41;71.64
28000;BME280;15328;50.860;10.562;2023-03-09T16:39:52;94627.34;;;9.39;71.13
28000;BME280;15328;50.860;10.562;2023-03-09T16:44:52;94635.97;;;9.24;72.28
28000;BME280;15328;50.860;10.562;2023-03-09T16:49:59;94625.31;;;9.19;73.02
28000;BME280;15328;50.860;10.562;2023-03-09T16:55:03;94633.50;;;9.12;73.97
28000;BME280;15328;50.860;10.562;2023-03-09T17:00:05;94641.53;;;9.22;73.43
28000;BME280;15328;50.860;10.562;2023-03-09T17:05:11;94639.31;;;9.09;74.47
28000;BME280;15328;50.860;10.562;2023-03-09T17:10:15;94637.56;;;9.25;73.50
28000;BME280;15328;50.860;10.562;2023-03-09T17:15:16;94628.75;;;9.14;74.32
28000;BME280;15328;50.860;10.562;2023-03-09T17:20:17;94642.44;;;9.33;73.38
28000;BME280;15328;50.860;10.562;2023-03-09T17:25:20;94631.84;;;9.38;72.72
28000;BME280;15328;50.860;10.562;2023-03-09T17:30:21;94632.66;;;9.39;72.69
28000;BME280;15328;50.860;10.562;2023-03-09T17:35:22;94650.50;;;9.48;71.81
28000;BME280;15328;50.860;10.562;2023-03-09T17:40:22;94640.16;;;9.47;71.83
28000;BME280;15328;50.860;10.562;2023-03-09T17:45:23;94645.47;;;9.47;71.76
28000;BME280;15328;50.860;10.562;2023-03-09T17:50:23;94642.63;;;9.58;71.60
28000;BME280;15328;50.860;10.562;2023-03-09T17:55:23;94647.84;;;9.48;71.01
28000;BME280;15328;50.860;10.562;2023-03-09T18:00:24;94654.94;;;9.38;71.74
28000;BME280;15328;50.860;10.562;2023-03-09T18:05:24;94643.06;;;9.45;71.43
28000;BME280;15328;50.860;10.562;2023-03-09T18:10:25;94653.63;;;9.40;71.32
28000;BME280;15328;50.860;10.562;2023-03-09T18:15:26;94648.63;;;9.44;71.36
28000;BME280;15328;50.860;10.562;2023-03-09T18:20:29;94644.63;;;9.41;71.54
28000;BME280;15328;50.860;10.562;2023-03-09T18:25:29;94647.53;;;9.40;71.18
28000;BME280;15328;50.860;10.562;2023-03-09T18:30:29;94648.00;;;9.32;71.38
28000;BME280;15328;50.860;10.562;2023-03-09T18:35:30;94645.56;;;9.30;72.09
28000;BME280;15328;50.860;10.562;2023-03-09T18:40:30;94634.78;;;9.37;71.78
28000;BME280;15328;50.860;10.562;2023-03-09T18:45:31;94634.91;;;9.25;72.22
28000;BME280;15328;50.860;10.562;2023-03-09T18:50:32;94619.66;;;9.37;71.85
28000;BME280;15328;50.860;10.562;2023-03-09T18:55:33;94624.91;;;9.32;72.14
28000;BME280;15328;50.860;10.562;2023-03-09T19:00:33;94620.59;;;9.26;71.85
28000;BME280;15328;50.860;10.562;2023-03-09T19:05:36;94615.00;;;9.22;72.31
28000;BME280;15328;50.860;10.562;2023-03-09T19:10:38;94607.31;;;9.21;72.54
28000;BME280;15328;50.860;10.562;2023-03-09T19:15:39;94606.34;;;9.32;72.08
28000;BME280;15328;50.860;10.562;2023-03-09T19:20:40;94610.16;;;9.14;72.54
28000;BME280;15328;50.860;10.562;2023-03-09T19:25:41;94605.41;;;9.16;72.26
28000;BME280;15328;50.860;10.562;2023-03-09T19:30:41;94603.97;;;9.04;72.85
28000;BME280;15328;50.860;10.562;2023-03-09T19:35:41;94583.19;;;9.27;72.05
28000;BME280;15328;50.860;10.562;2023-03-09T19:40:42;94577.91;;;9.27;71.97
28000;BME280;15328;50.860;10.562;2023-03-09T19:45:42;94578.41;;;9.24;71.65
28000;BME280;15328;50.860;10.562;2023-03-09T19:50:42;94572.03;;;9.25;71.21
28000;BME280;15328;50.860;10.562;2023-03-09T19:55:43;94554.25;;;9.21;71.03
28000;BME280;15328;50.860;10.562;2023-03-09T20:00:43;94555.28;;;9.20;71.12
28000;BME280;15328;50.860;10.562;2023-03-09T20:05:43;94551.59;;;9.21;71.54
28000;BME280;15328;50.860;10.562;2023-03-09T20:10:44;94553.81;;;9.02;72.37
28000;BME280;15328;50.860;10.562;2023-03-09T20:15:44;94551.50;;;9.06;72.71
28000;BME280;15328;50.860;10.562;2023-03-09T20:20:44;94540.56;;;9.02;72.73
28000;BME280;15328;50.860;10.562;2023-03-09T20:25:45;94527.53;;;8.95;73.13
28000;BME280;15328;50.860;10.562;2023-03-09T20:30:46;94524.88;;;8.95;73.36
28000;BME280;15328;50.860;10.562;2023-03-09T20:35:46;94525.22;;;9.04;72.87
28000;BME280;15328;50.860;10.562;2023-03-09T20:40:50;94519.34;;;9.02;72.84
28000;BME280;15328;50.860;10.562;2023-03-09T20:45:59;94517.25;;;9.04;72.89
28000;BME280;15328;50.860;10.562;2023-03-09T20:51:01;94509.25;;;8.99;73.05
28000;BME280;15328;50.860;10.562;2023-03-09T20:56:10;94500.97;;;8.90;72.89
28000;BME280;15328;50.860;10.562;2023-03-09T21:01:12;94507.31;;;8.89;73.00
28000;BME280;15328;50.860;10.562;2023-03-09T21:06:13;94495.66;;;8.90;72.67
28000;BME280;15328;50.860;10.562;2023-03-09T21:11:15;94497.28;;;8.96;72.21
28000;BME280;15328;50.860;10.562;2023-03-09T21:16:21;94485.59;;;8.92;72.60
28000;BME280;15328;50.860;10.562;2023-03-09T21:21:22;94466.50;;;8.90;72.42
28000;BME280;15328;50.860;10.562;2023-03-09T21:26:23;94456.19;;;8.94;72.04
28000;BME280;15328;50.860;10.562;2023-03-09T21:31:27;94456.63;;;8.81;72.46
28000;BME280;15328;50.860;10.562;2023-03-09T21:36:28;94447.41;;;8.88;72.16
28000;BME280;15328;50.860;10.562;2023-03-09T21:41:28;94436.00;;;8.93;71.70
28000;BME280;15328;50.860;10.562;2023-03-09T21:46:29;94430.16;;;8.86;71.82
28000;BME280;15328;50.860;10.562;2023-03-09T21:51:29;94424.59;;;8.92;71.72
28000;BME280;15328;50.860;10.562;2023-03-09T21:56:29;94414.00;;;8.92;71.60
28000;BME280;15328;50.860;10.562;2023-03-09T22:01:30;94395.19;;;8.94;71.34
28000;BME280;15328;50.860;10.562;2023-03-09T22:06:31;94391.72;;;8.88;71.14
28000;BME280;15328;50.860;10.562;2023-03-09T22:11:33;94375.25;;;8.81;71.26
28000;BME280;15328;50.860;10.562;2023-03-09T22:16:35;94359.84;;;8.78;71.14
28000;BME280;15328;50.860;10.562;2023-03-09T22:21:36;94355.03;;;8.75;71.12
28000;BME280;15328;50.860;10.562;2023-03-09T22:26:36;94351.91;;;8.78;71.47
28000;BME280;15328;50.860;10.562;2023-03-09T22:31:37;94337.84;;;8.78;71.45
28000;BME280;15328;50.860;10.562;2023-03-09T22:36:38;94336.00;;;8.78;71.70
28000;BME280;15328;50.860;10.562;2023-03-09T22:41:38;94330.72;;;8.83;71.49
28000;BME280;15328;50.860;10.562;2023-03-09T22:46:38;94323.31;;;8.90;71.15
28000;BME280;15328;50.860;10.562;2023-03-09T22:51:39;94316.94;;;8.91;71.09
28000;BME280;15328;50.860;10.562;2023-03-09T22:56:39;94309.47;;;8.78;71.63
28000;BME280;15328;50.860;10.562;2023-03-09T23:01:39;94303.13;;;8.79;72.03
28000;BME280;15328;50.860;10.562;2023-03-09T23:06:40;94284.81;;;8.78;71.98
28000;BME280;15328;50.860;10.562;2023-03-09T23:11:42;94260.44;;;8.81;71.80
28000;BME280;15328;50.860;10.562;2023-03-09T23:16:42;94245.59;;;8.80;71.43
28000;BME280;15328;50.860;10.562;2023-03-09T23:21:43;94222.75;;;8.74;71.51
28000;BME280;15328;50.860;10.562;2023-03-09T23:26:44;94210.53;;;8.67;71.76
28000;BME280;15328;50.860;10.562;2023-03-09T23:31:44;94183.78;;;8.69;71.77
28000;BME280;15328;50.860;10.562;2023-03-09T23:36:44;94185.59;;;8.53;71.49
28000;BME280;15328;50.860;10.562;2023-03-09T23:41:45;94178.72;;;8.57;71.57
28000;BME280;15328;50.860;10.562;2023-03-09T23:46:45;94167.06;;;8.68;70.90
28000;BME280;15328;50.860;10.562;2023-03-09T23:51:45;94162.00;;;8.52;71.27
28000;BME280;15328;50.860;10.562;2023-03-09T23:56:47;94162.78;;;8.52;71.20
